sensor_id;sensor_type;location;lat;lon;timestamp;temperature;humidity
45735;DHT22;31446;49.632;8.328;2024-03-08T00:03:57;6.40;99.90
45735;DHT22;31446;49.632;8.328;2024-03-08T00:19:03;6.20;99.90
45735;DHT22;31446;49.632;8.328;2024-03-08T00:34:10;5.90;99.90
45735;DHT22;31446;49.632;8.328;2024-03-08T00:49:16;5.70;99.90
45735;DHT22;31446;49.632;8.328;2024-03-08T01:04:23;5.50;99.90
45735;DHT22;31446;49.632;8.328;2024-03-08T01:19:32;5.40;99.90
45735;DHT22;31446;49.632;8.328;2024-03-08T01:34:38;5.20;99.90
45735;DHT22;31446;49.632;8.328;2024-03-08T01:49:45;5.00;99.90
45735;DHT22;31446;49.632;8.328;2024-03-08T02:04:52;5.00;99.90
45735;DHT22;31446;49.632;8.328;2024-03-08T02:19:58;4.90;99.90
45735;DHT22;31446;49.632;8.328;2024-03-08T02:35:05;4.80;99.90
45735;DHT22;31446;49.632;8.328;2024-03-08T02:50:11;4.60;99.90
45735;DHT22;31446;49.632;8.328;2024-03-08T03:05:19;4.50;99.90
45735;DHT22;31446;49.632;8.328;2024-03-08T03:20:25;4.40;99.90
45735;DHT22;31446;49.632;8.328;2024-03-08T03:35:36;4.20;99.90
45735;DHT22;31446;49.632;8.328;2024-03-08T03:50:42;4.00;99.90
45735;DHT22;31446;49.632;8.328;2024-03-08T04:05:49;4.00;99.90
45735;DHT22;31446;49.632;8.328;2024-03-08T04:20:55;3.80;99.90
45735;DHT22;31446;49.632;8.328;2024-03-08T04:36:01;3.60;99.90
45735;DHT22;31446;49.632;8.328;2024-03-08T04:51:09;3.50;99.90
45735;DHT22;31446;49.632;8.328;2024-03-08T05:06:15;3.30;99.90
45735;DHT22;31446;49.632;8.328;2024-03-08T05:21:24;3.30;99.90
45735;DHT22;31446;49.632;8.328;2024-03-08T05:36:32;3.30;99.90
45735;DHT22;31446;49.632;8.328;2024-03-08T05:51:39;3.20;99.90
45735;DHT22;31446;49.632;8.328;2024-03-08T06:06:46;3.30;99.90
45735;DHT22;31446;49.632;8.328;2024-03-08T06:21:55;3.10;99.90
45735;DHT22;31446;49.632;8.328;2024-03-08T06:37:01;3.10;99.90
45735;DHT22;31446;49.632;8.328;2024-03-08T06:52:07;3.30;99.90
45735;DHT22;31446;49.632;8.328;2024-03-08T07:07:14;3.50;99.90
45735;DHT22;31446;49.632;8.328;2024-03-08T07:22:23;3.90;99.90
45735;DHT22;31446;49.632;8.328;2024-03-08T07:37:30;4.50;99.90
45735;DHT22;31446;49.632;8.328;2024-03-08T07:52:36;5.00;99.90
45735;DHT22;31446;49.632;8.328;2024-03-08T08:07:44;5.90;99.90
45735;DHT22;31446;49.632;8.328;2024-03-08T08:22:51;6.30;99.90
45735;DHT22;31446;49.632;8.328;2024-03-08T08:37:59;7.50;99.90
45735;DHT22;31446;49.632;8.328;2024-03-08T08:53:07;8.00;99.90
45735;DHT22;31446;49.632;8.328;2024-03-08T09:08:14;8.20;99.90
45735;DHT22;31446;49.632;8.328;2024-03-08T09:23:23;8.90;99.90
45735;DHT22;31446;49.632;8.328;2024-03-08T09:38:33;9.20;99.90
45735;DHT22;31446;49.632;8.328;2024-03-08T09:53:41;9.60;99.90
45735;DHT22;31446;49.632;8.328;2024-03-08T10:08:50;10.10;99.90
45735;DHT22;31446;49.632;8.328;2024-03-08T10:23:57;10.30;99.90
45735;DHT22;31446;49.632;8.328;2024-03-08T10:39:10;11.20;99.90
45735;DHT22;31446;49.632;8.328;2024-03-08T10:54:21;12.00;99.90
45735;DHT22;31446;49.632;8.328;2024-03-08T11:09:33;11.80;99.90
45735;DHT22;31446;49.632;8.328;2024-03-08T11:24:41;12.80;99.90
45735;DHT22;31446;49.632;8.328;2024-03-08T11:39:53;13.10;99.90
45735;DHT22;31446;49.632;8.328;2024-03-08T11:55:04;12.90;99.90
45735;DHT22;31446;49.632;8.328;2024-03-08T12:10:18;13.30;99.90
45735;DHT22;31446;49.632;8.328;2024-03-08T12:25:29;11.90;99.90
45735;DHT22;31446;49.632;8.328;2024-03-08T12:40:38;12.10;99.90
45735;DHT22;31446;49.632;8.328;2024-03-08T12:55:47;12.30;99.90
45735;DHT22;31446;49.632;8.328;2024-03-08T13:10:55;12.50;99.90
45735;DHT22;31446;49.632;8.328;2024-03-08T13:26:02;12.80;99.90
45735;DHT22;31446;49.632;8.328;2024-03-08T13:41:13;13.50;99.90
45735;DHT22;31446;49.632;8.328;2024-03-08T13:56:22;13.50;99.90
45735;DHT22;31446;49.632;8.328;2024-03-08T14:11:29;13.40;99.90
45735;DHT22;31446;49.632;8.328;2024-03-08T14:26:36;13.50;99.90
45735;DHT22;31446;49.632;8.328;2024-03-08T14:41:45;13.80;99.90
45735;DHT22;31446;49.632;8.328;2024-03-08T14:56:54;13.80;99.90
45735;DHT22;31446;49.632;8.328;2024-03-08T15:12:01;13.50;99.90
45735;DHT22;31446;49.632;8.328;2024-03-08T15:27:08;13.60;99.90
45735;DHT22;31446;49.632;8.328;2024-03-08T15:42:16;13.50;99.90
45735;DHT22;31446;49.632;8.328;2024-03-08T15:57:26;13.30;99.90
45735;DHT22;31446;49.632;8.328;2024-03-08T16:12:34;12.90;99.90
45735;DHT22;31446;49.632;8.328;2024-03-08T16:27:46;12.50;99.90
45735;DHT22;31446;49.632;8.328;2024-03-08T16:42:56;12.20;99.90
45735;DHT22;31446;49.632;8.328;2024-03-08T16:58:05;11.80;99.90
45735;DHT22;31446;49.632;8.328;2024-03-08T17:13:17;11.40;99.90
45735;DHT22;31446;49.632;8.328;2024-03-08T17:28:23;10.90;99.90
45735;DHT22;31446;49.632;8.328;2024-03-08T17:43:30;10.40;99.90
45735;DHT22;31446;49.632;8.328;2024-03-08T17:58:37;10.20;99.90
45735;DHT22;31446;49.632;8.328;2024-03-08T18:13:43;9.90;99.90
45735;DHT22;31446;49.632;8.328;2024-03-08T18:28:51;9.20;99.90
45735;DHT22;31446;49.632;8.328;2024-03-08T18:43:58;8.80;99.90
45735;DHT22;31446;49.632;8.328;2024-03-08T18:59:05;8.60;99.90
45735;DHT22;31446;49.632;8.328;2024-03-08T19:14:12;8.70;99.90
45735;DHT22;31446;49.632;8.328;2024-03-08T19:29:21;8.60;99.90
45735;DHT22;31446;49.632;8.328;2024-03-08T19:44:28;8.50;99.90
45735;DHT22;31446;49.632;8.328;2024-03-08T19:59:36;8.10;99.90
45735;DHT22;31446;49.632;8.328;2024-03-08T20:14:44;8.10;99.90
45735;DHT22;31446;49.632;8.328;2024-03-08T20:29:52;8.10;99.90
45735;DHT22;31446;49.632;8.328;2024-03-08T20:44:58;8.10;99.90
45735;DHT22;31446;49.632;8.328;2024-03-08T21:00:07;7.90;99.90
45735;DHT22;31446;49.632;8.328;2024-03-08T21:15:22;7.60;99.90
45735;DHT22;31446;49.632;8.328;2024-03-08T21:30:28;7.20;99.90
45735;DHT22;31446;49.632;8.328;2024-03-08T21:45:35;6.30;99.90
45735;DHT22;31446;49.632;8.328;2024-03-08T22:00:41;5.70;99.90
45735;DHT22;31446;49.632;8.328;2024-03-08T22:15:50;5.40;99.90
45735;DHT22;31446;49.632;8.328;2024-03-08T22:30:57;5.20;99.90
45735;DHT22;31446;49.632;8.328;2024-03-08T22:46:04;5.70;99.90
45735;DHT22;31446;49.632;8.328;2024-03-08T23:01:12;5.90;99.90
45735;DHT22;31446;49.632;8.328;2024-03-08T23:16:26;5.80;99.90
45735;DHT22;31446;49.632;8.328;2024-03-08T23:31:33;5.70;99.90
45735;DHT22;31446;49.632;8.328;2024-03-08T23:46:42;5.60;99.90
